sensor_id;sensor_type;location;lat;lon;timestamp;pressure;altitude;pressure_sealevel;temperature;humidity
8501;BME280;4288;48.484;10.024;2022-07-06T00:02:11;96112.06;;;22.46;57.06
8501;BME280;4288;48.484;10.024;2022-07-06T00:04:39;96116.75;;;22.45;56.92
8501;BME280;4288;48.484;10.024;2022-07-06T00:07:06;96108.56;;;22.45;57.00
8501;BME280;4288;48.484;10.024;2022-07-06T00:09:33;96118.72;;;22.45;56.61
8501;BME280;4288;48.484;10.024;2022-07-06T00:12:01;96109.03;;;22.44;56.51
8501;BME280;4288;48.484;10.024;2022-07-06T00:14:28;96116.44;;;22.43;56.72
8501;BME280;4288;48.484;10.024;2022-07-06T00:16:56;96114.91;;;22.42;56.70
8501;BME280;4288;48.484;10.024;2022-07-06T00:19:24;96122.31;;;22.42;56.59
8501;BME280;4288;48.484;10.024;2022-07-06T00:21:51;96115.38;;;22.41;56.52
8501;BME280;4288;48.484;10.024;2022-07-06T00:24:18;96122.78;;;22.40;56.75
8501;BME280;4288;48.484;10.024;2022-07-06T00:26:46;96124.72;;;22.40;56.59
8501;BME280;4288;48.484;10.024;2022-07-06T00:29:13;96115.47;;;22.37;56.67
8501;BME280;4288;48.484;10.024;2022-07-06T00:31:41;96121.69;;;22.38;56.80
8501;BME280;4288;48.484;10.024;2022-07-06T00:34:09;96129.53;;;22.36;56.76
8501;BME280;4288;48.484;10.024;2022-07-06T00:36:36;96119.09;;;22.34;56.70
8501;BME280;4288;48.484;10.024;2022-07-06T00:39:04;96111.38;;;22.33;56.47
8501;BME280;4288;48.484;10.024;2022-07-06T00:41:31;96118.75;;;22.32;56.89
8501;BME280;4288;48.484;10.024;2022-07-06T00:43:58;96113.75;;;22.31;56.60
8501;BME280;4288;48.484;10.024;2022-07-06T00:46:28;96113.75;;;22.31;56.94
8501;BME280;4288;48.484;10.024;2022-07-06T00:48:57;96106.03;;;22.29;56.55
8501;BME280;4288;48.484;10.024;2022-07-06T00:51:30;96107.22;;;22.28;56.92
8501;BME280;4288;48.484;10.024;2022-07-06T00:54:00;96110.41;;;22.27;56.76
8501;BME280;4288;48.484;10.024;2022-07-06T00:56:31;96101.47;;;22.26;56.57
8501;BME280;4288;48.484;10.024;2022-07-06T00:58:59;96102.22;;;22.27;56.88
8501;BME280;4288;48.484;10.024;2022-07-06T01:01:26;96110.41;;;22.27;56.69
8501;BME280;4288;48.484;10.024;2022-07-06T01:03:54;96115.06;;;22.26;56.74
8501;BME280;4288;48.484;10.024;2022-07-06T01:06:21;96108.13;;;22.25;56.98
8501;BME280;4288;48.484;10.024;2022-07-06T01:08:50;96109.31;;;22.24;56.73
8501;BME280;4288;48.484;10.024;2022-07-06T01:11:18;96105.06;;;22.23;56.57
8501;BME280;4288;48.484;10.024;2022-07-06T01:13:46;96102.34;;;22.23;56.58
8501;BME280;4288;48.484;10.024;2022-07-06T01:16:14;96099.31;;;22.21;56.78
8501;BME280;4288;48.484;10.024;2022-07-06T01:18:41;96094.59;;;22.22;56.84
8501;BME280;4288;48.484;10.024;2022-07-06T01:21:12;96091.88;;;22.22;56.70
8501;BME280;4288;48.484;10.024;2022-07-06T01:23:41;96087.66;;;22.21;56.42
8501;BME280;4288;48.484;10.024;2022-07-06T01:26:11;96089.59;;;22.20;56.64
8501;BME280;4288;48.484;10.024;2022-07-06T01:28:40;96095.06;;;22.20;56.67
8501;BME280;4288;48.484;10.024;2022-07-06T01:31:14;96093.53;;;22.19;56.57
8501;BME280;4288;48.484;10.024;2022-07-06T01:33:42;96094.00;;;22.18;56.63
8501;BME280;4288;48.484;10.024;2022-07-06T01:36:11;96095.19;;;22.17;56.62
8501;BME280;4288;48.484;10.024;2022-07-06T01:38:50;96101.84;;;22.16;56.64
8501;BME280;4288;48.484;10.024;2022-07-06T01:41:18;96098.34;;;22.15;56.58
8501;BME280;4288;48.484;10.024;2022-07-06T01:43:46;96094.09;;;22.14;56.13
8501;BME280;4288;48.484;10.024;2022-07-06T01:46:13;96089.84;;;22.13;56.42
8501;BME280;4288;48.484;10.024;2022-07-06T01:48:41;96085.28;;;22.10;56.05
8501;BME280;4288;48.484;10.024;2022-07-06T01:51:08;96083.75;;;22.09;56.33
8501;BME280;4288;48.484;10.024;2022-07-06T01:53:39;96087.69;;;22.08;56.21
8501;BME280;4288;48.484;10.024;2022-07-06T01:56:07;96086.63;;;22.05;56.16
8501;BME280;4288;48.484;10.024;2022-07-06T01:58:34;96088.25;;;22.03;55.94
8501;BME280;4288;48.484;10.024;2022-07-06T02:01:07;96091.88;;;22.00;55.71
8501;BME280;4288;48.484;10.024;2022-07-06T02:03:34;96088.38;;;21.99;55.77
8501;BME280;4288;48.484;10.024;2022-07-06T02:06:02;96093.50;;;21.97;55.54
8501;BME280;4288;48.484;10.024;2022-07-06T02:08:29;96090.44;;;21.95;55.68
8501;BME280;4288;48.484;10.024;2022-07-06T02:10:58;96095.13;;;21.95;55.58
8501;BME280;4288;48.484;10.024;2022-07-06T02:13:26;96098.28;;;21.93;55.40
8501;BME280;4288;48.484;10.024;2022-07-06T02:15:53;96093.28;;;21.92;55.35
8501;BME280;4288;48.484;10.024;2022-07-06T02:18:20;96085.53;;;21.90;55.30
8501;BME280;4288;48.484;10.024;2022-07-06T02:20:47;96091.75;;;21.91;55.38
8501;BME280;4288;48.484;10.024;2022-07-06T02:23:15;96088.72;;;21.89;55.28
8501;BME280;4288;48.484;10.024;2022-07-06T02:25:42;96092.19;;;21.89;55.10
8501;BME280;4288;48.484;10.024;2022-07-06T02:28:11;96093.84;;;21.87;55.07
8501;BME280;4288;48.484;10.024;2022-07-06T02:30:38;96094.28;;;21.85;55.41
8501;BME280;4288;48.484;10.024;2022-07-06T02:33:05;96091.56;;;21.85;55.79
8501;BME280;4288;48.484;10.024;2022-07-06T02:35:32;96095.50;;;21.84;55.31
8501;BME280;4288;48.484;10.024;2022-07-06T02:38:00;96095.50;;;21.84;55.27
8501;BME280;4288;48.484;10.024;2022-07-06T02:40:27;96095.50;;;21.84;55.14
8501;BME280;4288;48.484;10.024;2022-07-06T02:42:54;96092.00;;;21.84;55.14
8501;BME280;4288;48.484;10.024;2022-07-06T02:45:23;96094.03;;;21.80;55.12
8501;BME280;4288;48.484;10.024;2022-07-06T02:47:50;96097.22;;;21.78;55.02
8501;BME280;4288;48.484;10.024;2022-07-06T02:50:19;96097.63;;;21.77;54.80
8501;BME280;4288;48.484;10.024;2022-07-06T02:52:46;96100.34;;;21.77;55.20
8501;BME280;4288;48.484;10.024;2022-07-06T02:55:13;96107.78;;;21.76;54.94
8501;BME280;4288;48.484;10.024;2022-07-06T02:57:40;96096.56;;;21.74;54.83
8501;BME280;4288;48.484;10.024;2022-07-06T03:00:09;96100.47;;;21.73;54.99
8501;BME280;4288;48.484;10.024;2022-07-06T03:02:38;96105.13;;;21.73;55.00
8501;BME280;4288;48.484;10.024;2022-07-06T03:05:06;96107.56;;;21.71;54.92
8501;BME280;4288;48.484;10.024;2022-07-06T03:07:34;96110.69;;;21.69;54.95
8501;BME280;4288;48.484;10.024;2022-07-06T03:10:01;96119.31;;;21.68;54.96
8501;BME280;4288;48.484;10.024;2022-07-06T03:12:28;96113.09;;;21.67;54.90
8501;BME280;4288;48.484;10.024;2022-07-06T03:14:55;96115.06;;;21.67;54.69
8501;BME280;4288;48.484;10.024;2022-07-06T03:17:22;96125.19;;;21.66;54.83
8501;BME280;4288;48.484;10.024;2022-07-06T03:19:51;96120.19;;;21.65;54.75
8501;BME280;4288;48.484;10.024;2022-07-06T03:22:19;96124.09;;;21.64;55.02
8501;BME280;4288;48.484;10.024;2022-07-06T03:24:46;96124.97;;;21.61;54.81
8501;BME280;4288;48.484;10.024;2022-07-06T03:27:13;96124.22;;;21.60;54.76
8501;BME280;4288;48.484;10.024;2022-07-06T03:29:41;96126.50;;;21.62;54.96
8501;BME280;4288;48.484;10.024;2022-07-06T03:32:08;96123.44;;;21.60;54.98
8501;BME280;4288;48.484;10.024;2022-07-06T03:34:35;96131.28;;;21.58;55.22
8501;BME280;4288;48.484;10.024;2022-07-06T03:37:04;96128.56;;;21.58;54.80
8501;BME280;4288;48.484;10.024;2022-07-06T03:39:31;96129.00;;;21.56;55.21
8501;BME280;4288;48.484;10.024;2022-07-06T03:41:59;96120.84;;;21.56;55.18
8501;BME280;4288;48.484;10.024;2022-07-06T03:44:26;96129.78;;;21.57;55.17
8501;BME280;4288;48.484;10.024;2022-07-06T03:46:53;96129.00;;;21.56;54.95
8501;BME280;4288;48.484;10.024;2022-07-06T03:49:21;96126.28;;;21.56;55.04
8501;BME280;4288;48.484;10.024;2022-07-06T03:51:50;96132.16;;;21.55;54.43
8501;BME280;4288;48.484;10.024;2022-07-06T03:54:18;96131.84;;;21.53;54.48
8501;BME280;4288;48.484;10.024;2022-07-06T03:56:46;96131.84;;;21.53;54.42
8501;BME280;4288;48.484;10.024;2022-07-06T03:59:13;96132.28;;;21.51;54.67
8501;BME280;4288;48.484;10.024;2022-07-06T04:01:40;96135.00;;;21.51;54.32
8501;BME280;4288;48.484;10.024;2022-07-06T04:04:07;96129.88;;;21.53;54.41
8501;BME280;4288;48.484;10.024;2022-07-06T04:06:35;96134.88;;;21.55;54.38
8501;BME280;4288;48.484;10.024;2022-07-06T04:09:02;96133.69;;;21.56;54.14
8501;BME280;4288;48.484;10.024;2022-07-06T04:11:31;96133.69;;;21.56;54.53
8501;BME280;4288;48.484;10.024;2022-07-06T04:13:58;96143.06;;;21.55;53.91
8501;BME280;4288;48.484;10.024;2022-07-06T04:16:25;96143.06;;;21.55;53.93
8501;BME280;4288;48.484;10.024;2022-07-06T04:18:52;96139.56;;;21.54;54.06
8501;BME280;4288;48.484;10.024;2022-07-06T04:21:19;96146.94;;;21.54;54.10
8501;BME280;4288;48.484;10.024;2022-07-06T04:23:46;96147.28;;;21.56;53.92
8501;BME280;4288;48.484;10.024;2022-07-06T04:26:14;96145.00;;;21.54;53.87
8501;BME280;4288;48.484;10.024;2022-07-06T04:28:42;96144.22;;;21.54;54.00
8501;BME280;4288;48.484;10.024;2022-07-06T04:31:09;96141.50;;;21.54;54.45
8501;BME280;4288;48.484;10.024;2022-07-06T04:33:37;96145.78;;;21.55;54.66
8501;BME280;4288;48.484;10.024;2022-07-06T04:36:04;96155.13;;;21.54;54.67
8501;BME280;4288;48.484;10.024;2022-07-06T04:38:32;96144.22;;;21.54;55.03
8501;BME280;4288;48.484;10.024;2022-07-06T04:40:59;96149.25;;;21.55;54.90
8501;BME280;4288;48.484;10.024;2022-07-06T04:43:26;96150.00;;;21.56;54.69
8501;BME280;4288;48.484;10.024;2022-07-06T04:45:55;96156.22;;;21.56;55.07
8501;BME280;4288;48.484;10.024;2022-07-06T04:48:22;96160.88;;;21.56;54.99
8501;BME280;4288;48.484;10.024;2022-07-06T04:50:49;96157.72;;;21.57;55.07
8501;BME280;4288;48.484;10.024;2022-07-06T04:53:16;96160.88;;;21.56;55.16
8501;BME280;4288;48.484;10.024;2022-07-06T04:55:43;96159.38;;;21.55;55.35
8501;BME280;4288;48.484;10.024;2022-07-06T04:58:10;96158.94;;;21.56;55.34
8501;BME280;4288;48.484;10.024;2022-07-06T05:00:38;96156.97;;;21.57;55.62
8501;BME280;4288;48.484;10.024;2022-07-06T05:03:06;96159.69;;;21.57;55.48
8501;BME280;4288;48.484;10.024;2022-07-06T05:05:33;96162.75;;;21.59;55.67
8501;BME280;4288;48.484;10.024;2022-07-06T05:08:01;96158.81;;;21.60;55.84
8501;BME280;4288;48.484;10.024;2022-07-06T05:10:28;96158.03;;;21.59;55.75
8501;BME280;4288;48.484;10.024;2022-07-06T05:12:57;96167.31;;;21.62;55.80
8501;BME280;4288;48.484;10.024;2022-07-06T05:15:24;96156.09;;;21.60;55.87
8501;BME280;4288;48.484;10.024;2022-07-06T05:17:51;96158.50;;;21.58;55.76
8501;BME280;4288;48.484;10.024;2022-07-06T05:20:20;96158.50;;;21.58;55.67
8501;BME280;4288;48.484;10.024;2022-07-06T05:22:47;96167.84;;;21.57;55.72
8501;BME280;4288;48.484;10.024;2022-07-06T05:25:14;96173.31;;;21.57;55.72
8501;BME280;4288;48.484;10.024;2022-07-06T05:27:41;96177.22;;;21.56;56.09
8501;BME280;4288;48.484;10.024;2022-07-06T05:30:10;96173.75;;;21.55;56.09
8501;BME280;4288;48.484;10.024;2022-07-06T05:32:37;96180.69;;;21.56;56.20
8501;BME280;4288;48.484;10.024;2022-07-06T05:35:07;96178.41;;;21.55;56.22
8501;BME280;4288;48.484;10.024;2022-07-06T05:37:35;96182.31;;;21.54;55.89
8501;BME280;4288;48.484;10.024;2022-07-06T05:40:03;96181.56;;;21.53;56.09
8501;BME280;4288;48.484;10.024;2022-07-06T05:42:31;96178.09;;;21.53;56.34
8501;BME280;4288;48.484;10.024;2022-07-06T05:44:58;96175.81;;;21.51;56.31
8501;BME280;4288;48.484;10.024;2022-07-06T05:47:25;96171.53;;;21.50;56.13
8501;BME280;4288;48.484;10.024;2022-07-06T05:50:10;96181.66;;;21.50;56.36
8501;BME280;4288;48.484;10.024;2022-07-06T05:52:43;96182.88;;;21.49;56.27
8501;BME280;4288;48.484;10.024;2022-07-06T05:55:12;96180.59;;;21.47;56.35
8501;BME280;4288;48.484;10.024;2022-07-06T05:57:39;96183.31;;;21.47;56.53
8501;BME280;4288;48.484;10.024;2022-07-06T06:00:08;96182.09;;;21.48;56.20
8501;BME280;4288;48.484;10.024;2022-07-06T06:02:39;96179.38;;;21.48;56.45
8501;BME280;4288;48.484;10.024;2022-07-06T06:05:09;96179.81;;;21.47;56.38
8501;BME280;4288;48.484;10.024;2022-07-06T06:07:37;96181.00;;;21.46;56.29
8501;BME280;4288;48.484;10.024;2022-07-06T06:10:09;96187.53;;;21.48;56.21
8501;BME280;4288;48.484;10.024;2022-07-06T06:12:37;96190.16;;;21.52;56.38
8501;BME280;4288;48.484;10.024;2022-07-06T06:15:06;96182.31;;;21.54;56.36
8501;BME280;4288;48.484;10.024;2022-07-06T06:17:35;96185.38;;;21.56;56.48
8501;BME280;4288;48.484;10.024;2022-07-06T06:20:04;96188.41;;;21.58;56.45
8501;BME280;4288;48.484;10.024;2022-07-06T06:22:45;96192.34;;;21.57;56.68
8501;BME280;4288;48.484;10.024;2022-07-06T06:25:14;96191.25;;;21.54;56.99
8501;BME280;4288;48.484;10.024;2022-07-06T06:27:42;96185.16;;;21.50;57.28
8501;BME280;4288;48.484;10.024;2022-07-06T06:30:10;96195.59;;;21.52;57.23
8501;BME280;4288;48.484;10.024;2022-07-06T06:32:37;96200.63;;;21.53;57.33
8501;BME280;4288;48.484;10.024;2022-07-06T06:35:05;96196.25;;;21.56;57.09
8501;BME280;4288;48.484;10.024;2022-07-06T06:37:33;96203.97;;;21.57;57.07
8501;BME280;4288;48.484;10.024;2022-07-06T06:40:01;96204.28;;;21.59;57.05
8501;BME280;4288;48.484;10.024;2022-07-06T06:42:30;96212.06;;;21.61;57.23
8501;BME280;4288;48.484;10.024;2022-07-06T06:44:57;96208.13;;;21.62;57.04
8501;BME280;4288;48.484;10.024;2022-07-06T06:47:25;96213.88;;;21.64;57.16
8501;BME280;4288;48.484;10.024;2022-07-06T06:49:52;96206.50;;;21.64;57.22
8501;BME280;4288;48.484;10.024;2022-07-06T06:52:19;96202.56;;;21.65;57.10
8501;BME280;4288;48.484;10.024;2022-07-06T06:54:46;96212.25;;;21.66;56.98
8501;BME280;4288;48.484;10.024;2022-07-06T06:57:13;96204.88;;;21.67;57.09
8501;BME280;4288;48.484;10.024;2022-07-06T06:59:42;96211.81;;;21.68;57.38
8501;BME280;4288;48.484;10.024;2022-07-06T07:02:09;96205.63;;;21.67;56.90
8501;BME280;4288;48.484;10.024;2022-07-06T07:04:36;96211.81;;;21.68;57.17
8501;BME280;4288;48.484;10.024;2022-07-06T07:07:03;96209.88;;;21.68;57.25
8501;BME280;4288;48.484;10.024;2022-07-06T07:09:31;96207.91;;;21.69;57.47
8501;BME280;4288;48.484;10.024;2022-07-06T07:11:58;96200.50;;;21.69;57.29
8501;BME280;4288;48.484;10.024;2022-07-06T07:14:25;96207.47;;;21.70;57.28
8501;BME280;4288;48.484;10.024;2022-07-06T07:16:55;96210.19;;;21.70;57.32
8501;BME280;4288;48.484;10.024;2022-07-06T07:19:22;96206.28;;;21.71;57.21
8501;BME280;4288;48.484;10.024;2022-07-06T07:21:49;96206.28;;;21.71;57.43
8501;BME280;4288;48.484;10.024;2022-07-06T07:24:16;96197.25;;;21.74;57.20
8501;BME280;4288;48.484;10.024;2022-07-06T07:26:43;96201.59;;;21.72;57.43
8501;BME280;4288;48.484;10.024;2022-07-06T07:29:11;96206.59;;;21.73;57.44
8501;BME280;4288;48.484;10.024;2022-07-06T07:31:38;96199.97;;;21.74;57.53
8501;BME280;4288;48.484;10.024;2022-07-06T07:34:06;96208.13;;;21.74;57.24
8501;BME280;4288;48.484;10.024;2022-07-06T07:36:34;96203.44;;;21.75;57.46
8501;BME280;4288;48.484;10.024;2022-07-06T07:39:01;96208.88;;;21.75;57.31
8501;BME280;4288;48.484;10.024;2022-07-06T07:41:29;96211.59;;;21.75;57.32
8501;BME280;4288;48.484;10.024;2022-07-06T07:43:57;96209.22;;;21.77;57.63
8501;BME280;4288;48.484;10.024;2022-07-06T07:46:24;96216.19;;;21.78;57.74
8501;BME280;4288;48.484;10.024;2022-07-06T07:48:51;96210.75;;;21.78;57.68
8501;BME280;4288;48.484;10.024;2022-07-06T07:51:20;96209.53;;;21.79;57.27
8501;BME280;4288;48.484;10.024;2022-07-06T07:53:47;96207.59;;;21.79;57.37
8501;BME280;4288;48.484;10.024;2022-07-06T07:56:14;96205.63;;;21.80;57.41
8501;BME280;4288;48.484;10.024;2022-07-06T07:58:42;96204.84;;;21.79;57.32
8501;BME280;4288;48.484;10.024;2022-07-06T08:01:09;96206.44;;;21.80;57.38
8501;BME280;4288;48.484;10.024;2022-07-06T08:03:36;96204.44;;;21.81;57.33
8501;BME280;4288;48.484;10.024;2022-07-06T08:06:04;96206.00;;;21.82;57.46
8501;BME280;4288;48.484;10.024;2022-07-06T08:08:32;96207.16;;;21.81;57.44
8501;BME280;4288;48.484;10.024;2022-07-06T08:10:59;96207.16;;;21.81;57.55
8501;BME280;4288;48.484;10.024;2022-07-06T08:13:27;96201.72;;;21.81;57.66
8501;BME280;4288;48.484;10.024;2022-07-06T08:15:54;96199.00;;;21.81;57.70
8501;BME280;4288;48.484;10.024;2022-07-06T08:18:21;96207.94;;;21.81;57.54
8501;BME280;4288;48.484;10.024;2022-07-06T08:20:48;96202.50;;;21.81;57.52
8501;BME280;4288;48.484;10.024;2022-07-06T08:23:15;96199.34;;;21.83;57.57
8501;BME280;4288;48.484;10.024;2022-07-06T08:25:44;96199.78;;;21.81;57.67
8501;BME280;4288;48.484;10.024;2022-07-06T08:28:11;96195.88;;;21.82;57.92
8501;BME280;4288;48.484;10.024;2022-07-06T08:30:38;96190.84;;;21.81;57.92
8501;BME280;4288;48.484;10.024;2022-07-06T08:33:06;96200.09;;;21.83;57.91
8501;BME280;4288;48.484;10.024;2022-07-06T08:35:33;96199.34;;;21.83;57.92
8501;BME280;4288;48.484;10.024;2022-07-06T08:38:00;96187.25;;;21.84;57.73
8501;BME280;4288;48.484;10.024;2022-07-06T08:40:33;96189.22;;;21.83;58.09
8501;BME280;4288;48.484;10.024;2022-07-06T08:43:02;96184.53;;;21.84;58.01
8501;BME280;4288;48.484;10.024;2022-07-06T08:45:30;96182.59;;;21.84;58.15
8501;BME280;4288;48.484;10.024;2022-07-06T08:48:02;96192.25;;;21.85;58.07
8501;BME280;4288;48.484;10.024;2022-07-06T08:50:30;96184.53;;;21.84;57.96
8501;BME280;4288;48.484;10.024;2022-07-06T08:52:58;96188.78;;;21.85;57.79
8501;BME280;4288;48.484;10.024;2022-07-06T08:55:26;96192.25;;;21.85;58.01
8501;BME280;4288;48.484;10.024;2022-07-06T08:57:55;96197.25;;;21.87;58.19
8501;BME280;4288;48.484;10.024;2022-07-06T09:00:24;96204.25;;;21.88;57.96
8501;BME280;4288;48.484;10.024;2022-07-06T09:02:52;96199.56;;;21.88;58.12
8501;BME280;4288;48.484;10.024;2022-07-06T09:05:23;96205.31;;;21.90;58.00
8501;BME280;4288;48.484;10.024;2022-07-06T09:07:52;96201.84;;;21.90;57.71
8501;BME280;4288;48.484;10.024;2022-07-06T09:10:21;96210.34;;;21.92;57.89
8501;BME280;4288;48.484;10.024;2022-07-06T09:12:48;96214.56;;;21.93;57.77
8501;BME280;4288;48.484;10.024;2022-07-06T09:15:16;96210.34;;;21.92;58.29
8501;BME280;4288;48.484;10.024;2022-07-06T09:17:45;96218.50;;;21.92;58.15
8501;BME280;4288;48.484;10.024;2022-07-06T09:20:13;96206.41;;;21.93;58.01
8501;BME280;4288;48.484;10.024;2022-07-06T09:22:41;96212.63;;;21.93;58.13
8501;BME280;4288;48.484;10.024;2022-07-06T09:25:11;96214.13;;;21.94;57.90
8501;BME280;4288;48.484;10.024;2022-07-06T09:27:40;96208.69;;;21.94;58.01
8501;BME280;4288;48.484;10.024;2022-07-06T09:30:09;96216.44;;;21.96;58.01
8501;BME280;4288;48.484;10.024;2022-07-06T09:32:41;96215.66;;;21.95;57.79
8501;BME280;4288;48.484;10.024;2022-07-06T09:35:22;96217.19;;;21.96;57.86
8501;BME280;4288;48.484;10.024;2022-07-06T09:38:03;96214.91;;;21.95;57.87
8501;BME280;4288;48.484;10.024;2022-07-06T09:40:33;96206.75;;;21.95;57.90
8501;BME280;4288;48.484;10.024;2022-07-06T09:43:15;96211.75;;;21.96;57.75
8501;BME280;4288;48.484;10.024;2022-07-06T09:45:44;96210.22;;;21.95;57.75
8501;BME280;4288;48.484;10.024;2022-07-06T09:48:14;96216.78;;;21.98;57.66
8501;BME280;4288;48.484;10.024;2022-07-06T09:50:47;96213.28;;;21.97;57.67
8501;BME280;4288;48.484;10.024;2022-07-06T09:53:15;96222.94;;;21.98;58.04
8501;BME280;4288;48.484;10.024;2022-07-06T09:55:45;96224.50;;;21.99;57.78
8501;BME280;4288;48.484;10.024;2022-07-06T09:58:13;96225.25;;;22.00;57.86
8501;BME280;4288;48.484;10.024;2022-07-06T10:00:41;96234.16;;;22.00;57.87
8501;BME280;4288;48.484;10.024;2022-07-06T10:03:09;96227.97;;;22.00;57.67
8501;BME280;4288;48.484;10.024;2022-07-06T10:05:40;96232.22;;;22.01;57.69
8501;BME280;4288;48.484;10.024;2022-07-06T10:08:09;96229.50;;;22.01;57.54
8501;BME280;4288;48.484;10.024;2022-07-06T10:10:38;96226.78;;;22.01;57.92
8501;BME280;4288;48.484;10.024;2022-07-06T10:13:07;96224.06;;;22.01;57.66
8501;BME280;4288;48.484;10.024;2022-07-06T10:15:36;96229.81;;;22.03;58.01
8501;BME280;4288;48.484;10.024;2022-07-06T10:18:06;96223.59;;;22.02;57.97
8501;BME280;4288;48.484;10.024;2022-07-06T10:20:35;96225.91;;;22.04;57.88
8501;BME280;4288;48.484;10.024;2022-07-06T10:23:08;96221.22;;;22.04;57.80
8501;BME280;4288;48.484;10.024;2022-07-06T10:25:35;96225.91;;;22.04;58.11
8501;BME280;4288;48.484;10.024;2022-07-06T10:28:04;96224.69;;;22.05;58.07
8501;BME280;4288;48.484;10.024;2022-07-06T10:30:40;96223.94;;;22.04;58.48
8501;BME280;4288;48.484;10.024;2022-07-06T10:33:08;96232.44;;;22.06;58.19
8501;BME280;4288;48.484;10.024;2022-07-06T10:35:40;96228.53;;;22.07;58.55
8501;BME280;4288;48.484;10.024;2022-07-06T10:38:10;96223.81;;;22.08;58.63
8501;BME280;4288;48.484;10.024;2022-07-06T10:40:39;96216.41;;;22.08;58.55
8501;BME280;4288;48.484;10.024;2022-07-06T10:43:32;96225.34;;;22.09;58.31
8501;BME280;4288;48.484;10.024;2022-07-06T10:46:07;96233.53;;;22.09;58.62
8501;BME280;4288;48.484;10.024;2022-07-06T10:48:37;96225.34;;;22.09;58.85
8501;BME280;4288;48.484;10.024;2022-07-06T10:51:04;96221.41;;;22.10;58.49
8501;BME280;4288;48.484;10.024;2022-07-06T10:53:35;96221.41;;;22.10;58.87
8501;BME280;4288;48.484;10.024;2022-07-06T10:56:05;96225.69;;;22.11;58.47
8501;BME280;4288;48.484;10.024;2022-07-06T10:58:51;96218.28;;;22.11;58.74
8501;BME280;4288;48.484;10.024;2022-07-06T11:01:19;96220.56;;;22.13;58.94
8501;BME280;4288;48.484;10.024;2022-07-06T11:03:49;96215.88;;;22.13;58.67
8501;BME280;4288;48.484;10.024;2022-07-06T11:06:19;96213.50;;;22.16;58.82
8501;BME280;4288;48.484;10.024;2022-07-06T11:08:56;96225.88;;;22.17;58.98
8501;BME280;4288;48.484;10.024;2022-07-06T11:11:25;96226.66;;;22.17;59.15
8501;BME280;4288;48.484;10.024;2022-07-06T11:14:00;96228.16;;;22.18;59.08
8501;BME280;4288;48.484;10.024;2022-07-06T11:16:29;96227.44;;;22.18;58.97
8501;BME280;4288;48.484;10.024;2022-07-06T11:19:06;96226.97;;;22.19;59.08
8501;BME280;4288;48.484;10.024;2022-07-06T11:21:45;96216.84;;;22.20;59.13
8501;BME280;4288;48.484;10.024;2022-07-06T11:24:16;96220.31;;;22.20;59.27
8501;BME280;4288;48.484;10.024;2022-07-06T11:26:46;96214.88;;;22.20;59.27
8501;BME280;4288;48.484;10.024;2022-07-06T11:29:16;96202.47;;;22.19;59.16
8501;BME280;4288;48.484;10.024;2022-07-06T11:31:45;96202.81;;;22.21;59.08
8501;BME280;4288;48.484;10.024;2022-07-06T11:34:18;96205.53;;;22.21;59.48
8501;BME280;4288;48.484;10.024;2022-07-06T11:36:46;96200.81;;;22.22;59.38
8501;BME280;4288;48.484;10.024;2022-07-06T11:39:15;96203.53;;;22.22;59.37
8501;BME280;4288;48.484;10.024;2022-07-06T11:41:43;96199.19;;;22.24;59.63
8501;BME280;4288;48.484;10.024;2022-07-06T11:44:10;96203.13;;;22.23;59.44
8501;BME280;4288;48.484;10.024;2022-07-06T11:46:37;96199.94;;;22.25;59.41
8501;BME280;4288;48.484;10.024;2022-07-06T11:49:06;96198.00;;;22.25;59.73
8501;BME280;4288;48.484;10.024;2022-07-06T11:51:36;96200.72;;;22.25;59.61
8501;BME280;4288;48.484;10.024;2022-07-06T11:54:09;96198.00;;;22.25;59.70
8501;BME280;4288;48.484;10.024;2022-07-06T11:56:47;96182.41;;;22.26;59.34
8501;BME280;4288;48.484;10.024;2022-07-06T11:59:15;96191.34;;;22.26;59.55
8501;BME280;4288;48.484;10.024;2022-07-06T12:01:43;96190.16;;;22.27;59.79
8501;BME280;4288;48.484;10.024;2022-07-06T12:04:11;96186.66;;;22.27;59.46
8501;BME280;4288;48.484;10.024;2022-07-06T12:06:38;96184.72;;;22.27;59.65
8501;BME280;4288;48.484;10.024;2022-07-06T12:09:05;96178.03;;;22.28;59.68
8501;BME280;4288;48.484;10.024;2022-07-06T12:11:38;96178.03;;;22.28;59.81
8501;BME280;4288;48.484;10.024;2022-07-06T12:14:14;96173.38;;;22.29;59.87
8501;BME280;4288;48.484;10.024;2022-07-06T12:16:42;96175.63;;;22.30;60.02
8501;BME280;4288;48.484;10.024;2022-07-06T12:19:10;96173.69;;;22.31;59.65
8501;BME280;4288;48.484;10.024;2022-07-06T12:21:44;96172.47;;;22.32;59.66
8501;BME280;4288;48.484;10.024;2022-07-06T12:24:19;96163.13;;;22.33;59.74
8501;BME280;4288;48.484;10.024;2022-07-06T12:26:48;96166.59;;;22.33;59.65
8501;BME280;4288;48.484;10.024;2022-07-06T12:29:16;96159.19;;;22.34;59.93
8501;BME280;4288;48.484;10.024;2022-07-06T12:31:49;96161.91;;;22.34;59.68
8501;BME280;4288;48.484;10.024;2022-07-06T12:34:18;96159.94;;;22.34;59.50
8501;BME280;4288;48.484;10.024;2022-07-06T12:36:47;96173.13;;;22.36;59.87
8501;BME280;4288;48.484;10.024;2022-07-06T12:39:17;96173.88;;;22.36;59.94
8501;BME280;4288;48.484;10.024;2022-07-06T12:41:50;96166.94;;;22.35;59.98
8501;BME280;4288;48.484;10.024;2022-07-06T12:44:18;96174.66;;;22.37;59.83
8501;BME280;4288;48.484;10.024;2022-07-06T12:46:47;96164.50;;;22.37;60.00
8501;BME280;4288;48.484;10.024;2022-07-06T12:49:19;96148.47;;;22.39;60.05
8501;BME280;4288;48.484;10.024;2022-07-06T12:51:55;96159.38;;;22.39;59.65
8501;BME280;4288;48.484;10.024;2022-07-06T12:54:25;96160.91;;;22.40;59.31
8501;BME280;4288;48.484;10.024;2022-07-06T12:57:07;96156.22;;;22.41;59.89
8501;BME280;4288;48.484;10.024;2022-07-06T12:59:39;96161.69;;;22.41;59.95
8501;BME280;4288;48.484;10.024;2022-07-06T13:02:08;96160.47;;;22.42;59.84
8501;BME280;4288;48.484;10.024;2022-07-06T13:04:36;96152.28;;;22.42;59.76
8501;BME280;4288;48.484;10.024;2022-07-06T13:07:04;96164.72;;;22.43;59.97
8501;BME280;4288;48.484;10.024;2022-07-06T13:09:32;96158.81;;;22.44;59.79
8501;BME280;4288;48.484;10.024;2022-07-06T13:11:59;96154.16;;;22.45;59.88
8501;BME280;4288;48.484;10.024;2022-07-06T13:14:27;96160.34;;;22.45;59.87
8501;BME280;4288;48.484;10.024;2022-07-06T13:16:54;96149.44;;;22.45;59.65
8501;BME280;4288;48.484;10.024;2022-07-06T13:19:22;96159.16;;;22.46;59.83